sensor_id;sensor_type;location;lat;lon;timestamp;temperature;humidity
12130;DHT22;6128;59.340;18.040;2023-05-18T00:02:00;7.90;99.90
12130;DHT22;6128;59.340;18.040;2023-05-18T00:04:28;7.90;99.90
12130;DHT22;6128;59.340;18.040;2023-05-18T00:06:56;7.90;99.90
12130;DHT22;6128;59.340;18.040;2023-05-18T00:09:23;7.90;99.90
12130;DHT22;6128;59.340;18.040;2023-05-18T00:11:51;7.90;99.90
12130;DHT22;6128;59.340;18.040;2023-05-18T00:14:18;7.90;99.90
12130;DHT22;6128;59.340;18.040;2023-05-18T00:16:46;7.90;99.90
12130;DHT22;6128;59.340;18.040;2023-05-18T00:19:17;8.00;99.90
12130;DHT22;6128;59.340;18.040;2023-05-18T00:21:45;7.90;99.90
12130;DHT22;6128;59.340;18.040;2023-05-18T00:24:13;8.00;99.90
12130;DHT22;6128;59.340;18.040;2023-05-18T00:26:42;8.00;99.90
12130;DHT22;6128;59.340;18.040;2023-05-18T00:29:09;8.00;99.90
12130;DHT22;6128;59.340;18.040;2023-05-18T00:31:37;8.00;99.90
12130;DHT22;6128;59.340;18.040;2023-05-18T00:34:04;8.00;99.90
12130;DHT22;6128;59.340;18.040;2023-05-18T00:36:33;8.00;99.90
12130;DHT22;6128;59.340;18.040;2023-05-18T00:39:00;8.00;99.90
12130;DHT22;6128;59.340;18.040;2023-05-18T00:41:29;8.00;99.90
12130;DHT22;6128;59.340;18.040;2023-05-18T00:43:57;8.00;99.90
12130;DHT22;6128;59.340;18.040;2023-05-18T00:46:25;7.90;99.90
12130;DHT22;6128;59.340;18.040;2023-05-18T00:48:54;7.90;99.90
12130;DHT22;6128;59.340;18.040;2023-05-18T00:51:23;7.80;99.90
12130;DHT22;6128;59.340;18.040;2023-05-18T00:53:53;7.80;99.90
12130;DHT22;6128;59.340;18.040;2023-05-18T00:56:21;7.70;99.90
12130;DHT22;6128;59.340;18.040;2023-05-18T00:58:50;7.70;99.90
12130;DHT22;6128;59.340;18.040;2023-05-18T01:01:22;7.60;99.90
12130;DHT22;6128;59.340;18.040;2023-05-18T01:03:52;7.60;99.90
12130;DHT22;6128;59.340;18.040;2023-05-18T01:06:22;7.50;99.90
12130;DHT22;6128;59.340;18.040;2023-05-18T01:08:52;7.50;99.90
12130;DHT22;6128;59.340;18.040;2023-05-18T01:11:26;7.40;99.90
12130;DHT22;6128;59.340;18.040;2023-05-18T01:14:03;7.30;99.90
12130;DHT22;6128;59.340;18.040;2023-05-18T01:16:40;7.30;99.90
12130;DHT22;6128;59.340;18.040;2023-05-18T01:19:22;7.30;99.90
12130;DHT22;6128;59.340;18.040;2023-05-18T01:22:06;7.20;99.90
12130;DHT22;6128;59.340;18.040;2023-05-18T01:24:42;7.20;99.90
12130;DHT22;6128;59.340;18.040;2023-05-18T01:27:11;7.20;99.90
12130;DHT22;6128;59.340;18.040;2023-05-18T01:29:41;7.10;99.90
12130;DHT22;6128;59.340;18.040;2023-05-18T01:32:09;7.10;99.90
12130;DHT22;6128;59.340;18.040;2023-05-18T01:34:36;7.10;99.90
12130;DHT22;6128;59.340;18.040;2023-05-18T01:37:03;7.00;99.90
12130;DHT22;6128;59.340;18.040;2023-05-18T01:39:30;7.00;99.90
12130;DHT22;6128;59.340;18.040;2023-05-18T01:42:01;7.00;99.90
12130;DHT22;6128;59.340;18.040;2023-05-18T01:44:38;7.00;99.90
12130;DHT22;6128;59.340;18.040;2023-05-18T01:47:09;6.90;99.90
12130;DHT22;6128;59.340;18.040;2023-05-18T01:49:42;6.80;99.90
12130;DHT22;6128;59.340;18.040;2023-05-18T01:52:19;6.80;99.90
12130;DHT22;6128;59.340;18.040;2023-05-18T01:54:49;6.70;99.90
12130;DHT22;6128;59.340;18.040;2023-05-18T01:57:20;6.70;99.90
12130;DHT22;6128;59.340;18.040;2023-05-18T01:59:51;6.60;99.90
12130;DHT22;6128;59.340;18.040;2023-05-18T02:02:19;6.60;99.90
12130;DHT22;6128;59.340;18.040;2023-05-18T02:04:46;6.60;99.90
12130;DHT22;6128;59.340;18.040;2023-05-18T02:07:14;6.60;99.90
12130;DHT22;6128;59.340;18.040;2023-05-18T02:09:41;6.50;99.90
12130;DHT22;6128;59.340;18.040;2023-05-18T02:12:09;6.50;99.90
12130;DHT22;6128;59.340;18.040;2023-05-18T02:14:36;6.50;99.90
12130;DHT22;6128;59.340;18.040;2023-05-18T02:17:04;6.50;99.90
12130;DHT22;6128;59.340;18.040;2023-05-18T02:19:32;6.40;99.90
12130;DHT22;6128;59.340;18.040;2023-05-18T02:22:03;6.40;99.90
12130;DHT22;6128;59.340;18.040;2023-05-18T02:24:30;6.40;99.90
12130;DHT22;6128;59.340;18.040;2023-05-18T02:26:57;6.40;99.90
12130;DHT22;6128;59.340;18.040;2023-05-18T02:29:26;6.40;99.90
12130;DHT22;6128;59.340;18.040;2023-05-18T02:31:53;6.40;99.90
12130;DHT22;6128;59.340;18.040;2023-05-18T02:34:21;6.40;99.90
12130;DHT22;6128;59.340;18.040;2023-05-18T02:36:49;6.30;99.90
12130;DHT22;6128;59.340;18.040;2023-05-18T02:39:16;6.30;99.90
12130;DHT22;6128;59.340;18.040;2023-05-18T02:41:43;6.30;99.90
12130;DHT22;6128;59.340;18.040;2023-05-18T02:44:10;6.30;99.90
12130;DHT22;6128;59.340;18.040;2023-05-18T02:46:40;6.30;99.90
12130;DHT22;6128;59.340;18.040;2023-05-18T02:49:07;6.30;99.90
12130;DHT22;6128;59.340;18.040;2023-05-18T02:51:35;6.30;99.90
12130;DHT22;6128;59.340;18.040;2023-05-18T02:54:02;6.30;99.90
12130;DHT22;6128;59.340;18.040;2023-05-18T02:56:29;6.30;99.90
12130;DHT22;6128;59.340;18.040;2023-05-18T02:58:57;6.30;99.90
12130;DHT22;6128;59.340;18.040;2023-05-18T03:01:25;6.20;99.90
12130;DHT22;6128;59.340;18.040;2023-05-18T03:03:53;6.30;99.90
12130;DHT22;6128;59.340;18.040;2023-05-18T03:06:22;6.20;99.90
12130;DHT22;6128;59.340;18.040;2023-05-18T03:08:52;6.30;99.90
12130;DHT22;6128;59.340;18.040;2023-05-18T03:11:20;6.20;99.90
12130;DHT22;6128;59.340;18.040;2023-05-18T03:13:47;6.20;99.90
12130;DHT22;6128;59.340;18.040;2023-05-18T03:16:14;6.20;99.90
12130;DHT22;6128;59.340;18.040;2023-05-18T03:18:41;6.30;99.90
12130;DHT22;6128;59.340;18.040;2023-05-18T03:21:08;6.30;99.90
12130;DHT22;6128;59.340;18.040;2023-05-18T03:23:38;6.30;99.90
12130;DHT22;6128;59.340;18.040;2023-05-18T03:26:07;6.30;99.90
12130;DHT22;6128;59.340;18.040;2023-05-18T03:28:36;6.40;99.90
12130;DHT22;6128;59.340;18.040;2023-05-18T03:31:03;6.40;99.90
12130;DHT22;6128;59.340;18.040;2023-05-18T03:33:31;6.40;99.90
12130;DHT22;6128;59.340;18.040;2023-05-18T03:36:02;6.40;99.90
12130;DHT22;6128;59.340;18.040;2023-05-18T03:38:29;6.40;99.90
12130;DHT22;6128;59.340;18.040;2023-05-18T03:40:56;6.40;99.90
12130;DHT22;6128;59.340;18.040;2023-05-18T03:43:25;6.50;99.90
12130;DHT22;6128;59.340;18.040;2023-05-18T03:45:54;6.50;99.90
12130;DHT22;6128;59.340;18.040;2023-05-18T03:48:22;6.50;99.90
12130;DHT22;6128;59.340;18.040;2023-05-18T03:50:49;6.60;99.90
12130;DHT22;6128;59.340;18.040;2023-05-18T03:53:16;6.60;99.90
12130;DHT22;6128;59.340;18.040;2023-05-18T03:55:44;6.60;99.90
12130;DHT22;6128;59.340;18.040;2023-05-18T03:58:11;6.70;99.90
12130;DHT22;6128;59.340;18.040;2023-05-18T04:00:39;6.70;99.90
12130;DHT22;6128;59.340;18.040;2023-05-18T04:03:07;6.70;99.90
12130;DHT22;6128;59.340;18.040;2023-05-18T04:05:37;6.70;99.90
12130;DHT22;6128;59.340;18.040;2023-05-18T04:08:04;6.80;99.90
12130;DHT22;6128;59.340;18.040;2023-05-18T04:10:33;6.80;99.90
12130;DHT22;6128;59.340;18.040;2023-05-18T04:13:00;6.90;99.90
12130;DHT22;6128;59.340;18.040;2023-05-18T04:15:27;6.90;99.90
12130;DHT22;6128;59.340;18.040;2023-05-18T04:17:56;7.00;99.90
12130;DHT22;6128;59.340;18.040;2023-05-18T04:20:24;7.00;99.90
12130;DHT22;6128;59.340;18.040;2023-05-18T04:22:52;7.00;99.90
12130;DHT22;6128;59.340;18.040;2023-05-18T04:25:20;7.10;99.90
12130;DHT22;6128;59.340;18.040;2023-05-18T04:27:47;7.10;99.90
12130;DHT22;6128;59.340;18.040;2023-05-18T04:30:15;7.20;99.90
12130;DHT22;6128;59.340;18.040;2023-05-18T04:32:43;7.30;99.90
12130;DHT22;6128;59.340;18.040;2023-05-18T04:35:12;7.30;99.90
12130;DHT22;6128;59.340;18.040;2023-05-18T04:37:39;7.40;99.90
12130;DHT22;6128;59.340;18.040;2023-05-18T04:40:08;7.40;99.90
12130;DHT22;6128;59.340;18.040;2023-05-18T04:42:41;7.50;99.90
12130;DHT22;6128;59.340;18.040;2023-05-18T04:45:11;7.50;99.90
12130;DHT22;6128;59.340;18.040;2023-05-18T04:47:42;7.50;99.90
12130;DHT22;6128;59.340;18.040;2023-05-18T04:50:13;7.60;99.90
12130;DHT22;6128;59.340;18.040;2023-05-18T04:52:41;7.70;99.90
12130;DHT22;6128;59.340;18.040;2023-05-18T04:55:14;7.70;99.90
12130;DHT22;6128;59.340;18.040;2023-05-18T04:57:41;7.70;99.90
12130;DHT22;6128;59.340;18.040;2023-05-18T05:00:10;7.80;99.90
12130;DHT22;6128;59.340;18.040;2023-05-18T05:02:38;7.80;99.90
12130;DHT22;6128;59.340;18.040;2023-05-18T05:05:06;7.80;99.90
12130;DHT22;6128;59.340;18.040;2023-05-18T05:07:34;7.90;99.90
12130;DHT22;6128;59.340;18.040;2023-05-18T05:10:02;7.90;99.90
12130;DHT22;6128;59.340;18.040;2023-05-18T05:12:29;8.00;99.90
12130;DHT22;6128;59.340;18.040;2023-05-18T05:14:56;8.00;99.90
12130;DHT22;6128;59.340;18.040;2023-05-18T05:17:23;8.00;99.90
12130;DHT22;6128;59.340;18.040;2023-05-18T05:19:51;8.00;99.90
12130;DHT22;6128;59.340;18.040;2023-05-18T05:22:18;8.10;99.90
12130;DHT22;6128;59.340;18.040;2023-05-18T05:24:46;8.10;99.90
12130;DHT22;6128;59.340;18.040;2023-05-18T05:27:13;8.20;99.90
12130;DHT22;6128;59.340;18.040;2023-05-18T05:29:40;8.20;99.90
12130;DHT22;6128;59.340;18.040;2023-05-18T05:32:08;8.30;99.90
12130;DHT22;6128;59.340;18.040;2023-05-18T05:34:37;8.30;99.90
12130;DHT22;6128;59.340;18.040;2023-05-18T05:37:04;8.30;99.90
12130;DHT22;6128;59.340;18.040;2023-05-18T05:39:31;8.40;99.90
12130;DHT22;6128;59.340;18.040;2023-05-18T05:42:00;8.40;99.90
12130;DHT22;6128;59.340;18.040;2023-05-18T05:44:27;8.50;99.90
12130;DHT22;6128;59.340;18.040;2023-05-18T05:46:54;8.60;99.90
12130;DHT22;6128;59.340;18.040;2023-05-18T05:49:21;8.70;99.90
12130;DHT22;6128;59.340;18.040;2023-05-18T05:51:48;8.80;99.90
12130;DHT22;6128;59.340;18.040;2023-05-18T05:54:15;8.90;99.90
12130;DHT22;6128;59.340;18.040;2023-05-18T05:56:43;9.10;99.90
12130;DHT22;6128;59.340;18.040;2023-05-18T05:59:11;9.30;99.90
12130;DHT22;6128;59.340;18.040;2023-05-18T06:01:39;9.60;99.90
12130;DHT22;6128;59.340;18.040;2023-05-18T06:04:06;10.30;99.90
12130;DHT22;6128;59.340;18.040;2023-05-18T06:06:36;11.50;99.90
12130;DHT22;6128;59.340;18.040;2023-05-18T06:09:03;12.90;99.90
12130;DHT22;6128;59.340;18.040;2023-05-18T06:11:30;14.30;99.90
12130;DHT22;6128;59.340;18.040;2023-05-18T06:13:57;15.40;99.90
12130;DHT22;6128;59.340;18.040;2023-05-18T06:16:26;16.50;99.90
12130;DHT22;6128;59.340;18.040;2023-05-18T06:18:53;17.40;99.90
12130;DHT22;6128;59.340;18.040;2023-05-18T06:21:21;18.10;99.90
12130;DHT22;6128;59.340;18.040;2023-05-18T06:23:48;18.90;99.90
12130;DHT22;6128;59.340;18.040;2023-05-18T06:26:15;19.70;99.90
12130;DHT22;6128;59.340;18.040;2023-05-18T06:28:42;20.10;99.90
12130;DHT22;6128;59.340;18.040;2023-05-18T06:31:09;20.20;99.90
12130;DHT22;6128;59.340;18.040;2023-05-18T06:33:38;20.40;99.90
12130;DHT22;6128;59.340;18.040;2023-05-18T06:36:06;20.80;99.90
12130;DHT22;6128;59.340;18.040;2023-05-18T06:38:33;21.20;99.90
12130;DHT22;6128;59.340;18.040;2023-05-18T06:41:00;21.50;99.90
12130;DHT22;6128;59.340;18.040;2023-05-18T06:43:27;21.70;99.90
12130;DHT22;6128;59.340;18.040;2023-05-18T06:45:54;22.00;99.90
12130;DHT22;6128;59.340;18.040;2023-05-18T06:48:26;22.00;99.80
12130;DHT22;6128;59.340;18.040;2023-05-18T06:50:54;22.10;99.60
12130;DHT22;6128;59.340;18.040;2023-05-18T06:53:21;22.00;99.00
12130;DHT22;6128;59.340;18.040;2023-05-18T06:55:49;22.40;98.50
12130;DHT22;6128;59.340;18.040;2023-05-18T06:58:16;22.30;98.00
12130;DHT22;6128;59.340;18.040;2023-05-18T07:00:43;22.10;97.60
12130;DHT22;6128;59.340;18.040;2023-05-18T07:03:10;21.90;96.00
12130;DHT22;6128;59.340;18.040;2023-05-18T07:05:37;21.90;95.40
12130;DHT22;6128;59.340;18.040;2023-05-18T07:08:06;21.90;94.30
12130;DHT22;6128;59.340;18.040;2023-05-18T07:10:34;22.00;93.70
12130;DHT22;6128;59.340;18.040;2023-05-18T07:13:01;22.30;92.90
12130;DHT22;6128;59.340;18.040;2023-05-18T07:15:28;22.50;91.50
12130;DHT22;6128;59.340;18.040;2023-05-18T07:17:55;22.90;90.00
12130;DHT22;6128;59.340;18.040;2023-05-18T07:20:22;23.20;88.70
12130;DHT22;6128;59.340;18.040;2023-05-18T07:22:49;23.00;87.30
12130;DHT22;6128;59.340;18.040;2023-05-18T07:25:18;22.70;83.40
12130;DHT22;6128;59.340;18.040;2023-05-18T07:27:45;22.60;82.80
12130;DHT22;6128;59.340;18.040;2023-05-18T07:30:13;22.50;82.80
12130;DHT22;6128;59.340;18.040;2023-05-18T07:32:40;22.10;80.50
12130;DHT22;6128;59.340;18.040;2023-05-18T07:35:09;21.70;78.20
12130;DHT22;6128;59.340;18.040;2023-05-18T07:37:37;21.50;76.90
12130;DHT22;6128;59.340;18.040;2023-05-18T07:40:05;21.60;76.30
12130;DHT22;6128;59.340;18.040;2023-05-18T07:42:37;21.80;75.40
12130;DHT22;6128;59.340;18.040;2023-05-18T07:45:05;21.70;74.80
12130;DHT22;6128;59.340;18.040;2023-05-18T07:47:32;21.00;73.30
12130;DHT22;6128;59.340;18.040;2023-05-18T07:50:00;20.80;71.80
12130;DHT22;6128;59.340;18.040;2023-05-18T07:52:27;20.70;70.40
12130;DHT22;6128;59.340;18.040;2023-05-18T07:54:54;20.70;69.80
12130;DHT22;6128;59.340;18.040;2023-05-18T07:57:22;20.50;69.20
12130;DHT22;6128;59.340;18.040;2023-05-18T07:59:51;20.10;68.30
12130;DHT22;6128;59.340;18.040;2023-05-18T08:02:20;20.00;68.00
12130;DHT22;6128;59.340;18.040;2023-05-18T08:04:48;19.90;67.30
12130;DHT22;6128;59.340;18.040;2023-05-18T08:07:16;19.70;66.90
12130;DHT22;6128;59.340;18.040;2023-05-18T08:09:44;19.50;66.50
12130;DHT22;6128;59.340;18.040;2023-05-18T08:12:11;19.30;66.40
12130;DHT22;6128;59.340;18.040;2023-05-18T08:14:38;18.90;66.10
12130;DHT22;6128;59.340;18.040;2023-05-18T08:17:10;18.80;66.00
12130;DHT22;6128;59.340;18.040;2023-05-18T08:19:39;18.70;65.70
12130;DHT22;6128;59.340;18.040;2023-05-18T08:22:06;18.60;65.70
12130;DHT22;6128;59.340;18.040;2023-05-18T08:24:33;18.60;65.50
12130;DHT22;6128;59.340;18.040;2023-05-18T08:27:00;18.50;65.10
12130;DHT22;6128;59.340;18.040;2023-05-18T08:29:28;18.70;65.30
12130;DHT22;6128;59.340;18.040;2023-05-18T08:31:55;18.80;66.00
12130;DHT22;6128;59.340;18.040;2023-05-18T08:34:24;18.90;66.20
12130;DHT22;6128;59.340;18.040;2023-05-18T08:36:51;19.00;66.50
12130;DHT22;6128;59.340;18.040;2023-05-18T08:39:18;19.20;67.00
12130;DHT22;6128;59.340;18.040;2023-05-18T08:41:51;19.00;67.10
12130;DHT22;6128;59.340;18.040;2023-05-18T08:44:21;18.70;66.80
12130;DHT22;6128;59.340;18.040;2023-05-18T08:46:49;18.30;66.70
12130;DHT22;6128;59.340;18.040;2023-05-18T08:49:17;18.00;66.50
12130;DHT22;6128;59.340;18.040;2023-05-18T08:51:47;18.10;66.30
12130;DHT22;6128;59.340;18.040;2023-05-18T08:54:20;18.20;66.40
12130;DHT22;6128;59.340;18.040;2023-05-18T08:56:48;18.20;67.10
12130;DHT22;6128;59.340;18.040;2023-05-18T08:59:18;18.70;68.50
12130;DHT22;6128;59.340;18.040;2023-05-18T09:01:48;19.30;68.70
12130;DHT22;6128;59.340;18.040;2023-05-18T09:04:17;19.80;70.20
12130;DHT22;6128;59.340;18.040;2023-05-18T09:06:47;20.30;70.30
12130;DHT22;6128;59.340;18.040;2023-05-18T09:09:17;21.00;70.80
12130;DHT22;6128;59.340;18.040;2023-05-18T09:11:46;21.60;71.00
12130;DHT22;6128;59.340;18.040;2023-05-18T09:14:13;22.20;72.00
12130;DHT22;6128;59.340;18.040;2023-05-18T09:16:40;22.40;71.80
12130;DHT22;6128;59.340;18.040;2023-05-18T09:19:07;22.70;71.60
12130;DHT22;6128;59.340;18.040;2023-05-18T09:21:35;22.60;71.20
12130;DHT22;6128;59.340;18.040;2023-05-18T09:24:04;21.50;64.70
12130;DHT22;6128;59.340;18.040;2023-05-18T09:26:32;20.30;63.40
12130;DHT22;6128;59.340;18.040;2023-05-18T09:28:59;19.00;62.30
12130;DHT22;6128;59.340;18.040;2023-05-18T09:31:26;18.10;62.10
12130;DHT22;6128;59.340;18.040;2023-05-18T09:33:57;17.00;61.30
12130;DHT22;6128;59.340;18.040;2023-05-18T09:36:26;16.20;59.70
12130;DHT22;6128;59.340;18.040;2023-05-18T09:38:55;15.50;59.60
12130;DHT22;6128;59.340;18.040;2023-05-18T09:41:26;15.00;58.70
12130;DHT22;6128;59.340;18.040;2023-05-18T09:43:53;14.80;58.60
12130;DHT22;6128;59.340;18.040;2023-05-18T09:46:20;14.40;58.50
12130;DHT22;6128;59.340;18.040;2023-05-18T09:48:50;14.30;58.90
12130;DHT22;6128;59.340;18.040;2023-05-18T09:51:17;14.30;59.00
12130;DHT22;6128;59.340;18.040;2023-05-18T09:53:47;14.20;59.30
12130;DHT22;6128;59.340;18.040;2023-05-18T09:56:16;14.00;59.70
12130;DHT22;6128;59.340;18.040;2023-05-18T09:58:46;13.90;59.80
12130;DHT22;6128;59.340;18.040;2023-05-18T10:01:13;13.90;59.80
12130;DHT22;6128;59.340;18.040;2023-05-18T10:03:40;13.90;59.70
12130;DHT22;6128;59.340;18.040;2023-05-18T10:06:11;13.90;59.40
12130;DHT22;6128;59.340;18.040;2023-05-18T10:08:39;14.00;59.20
12130;DHT22;6128;59.340;18.040;2023-05-18T10:11:06;13.90;59.00
12130;DHT22;6128;59.340;18.040;2023-05-18T10:13:34;14.00;59.00
12130;DHT22;6128;59.340;18.040;2023-05-18T10:16:06;13.90;58.90
12130;DHT22;6128;59.340;18.040;2023-05-18T10:18:34;14.00;58.90
12130;DHT22;6128;59.340;18.040;2023-05-18T10:21:04;14.00;59.00
12130;DHT22;6128;59.340;18.040;2023-05-18T10:23:32;14.00;58.90
12130;DHT22;6128;59.340;18.040;2023-05-18T10:26:04;14.10;58.90
12130;DHT22;6128;59.340;18.040;2023-05-18T10:28:37;14.10;59.00
12130;DHT22;6128;59.340;18.040;2023-05-18T10:31:05;14.10;59.10
12130;DHT22;6128;59.340;18.040;2023-05-18T10:33:35;14.10;59.30
12130;DHT22;6128;59.340;18.040;2023-05-18T10:36:04;14.10;59.40
12130;DHT22;6128;59.340;18.040;2023-05-18T10:38:32;14.20;59.60
12130;DHT22;6128;59.340;18.040;2023-05-18T10:41:00;14.20;59.80
12130;DHT22;6128;59.340;18.040;2023-05-18T10:43:27;14.10;59.70
12130;DHT22;6128;59.340;18.040;2023-05-18T10:45:56;14.00;59.70
12130;DHT22;6128;59.340;18.040;2023-05-18T10:48:27;14.00;59.60
12130;DHT22;6128;59.340;18.040;2023-05-18T10:50:55;14.10;59.60
12130;DHT22;6128;59.340;18.040;2023-05-18T10:53:24;14.10;59.60
12130;DHT22;6128;59.340;18.040;2023-05-18T10:55:53;14.10;59.70
12130;DHT22;6128;59.340;18.040;2023-05-18T10:58:22;14.20;59.80
12130;DHT22;6128;59.340;18.040;2023-05-18T11:00:52;14.30;59.90
12130;DHT22;6128;59.340;18.040;2023-05-18T11:03:20;14.40;60.00
12130;DHT22;6128;59.340;18.040;2023-05-18T11:06:02;14.30;60.20
12130;DHT22;6128;59.340;18.040;2023-05-18T11:08:29;14.40;60.20
12130;DHT22;6128;59.340;18.040;2023-05-18T11:11:01;14.50;60.40
12130;DHT22;6128;59.340;18.040;2023-05-18T11:13:30;14.60;60.50
12130;DHT22;6128;59.340;18.040;2023-05-18T11:16:07;14.70;60.60
12130;DHT22;6128;59.340;18.040;2023-05-18T11:18:38;14.70;60.60
12130;DHT22;6128;59.340;18.040;2023-05-18T11:21:29;14.70;60.70
12130;DHT22;6128;59.340;18.040;2023-05-18T11:24:28;14.80;60.70
12130;DHT22;6128;59.340;18.040;2023-05-18T11:26:57;14.90;60.70
12130;DHT22;6128;59.340;18.040;2023-05-18T11:29:30;14.80;60.50
12130;DHT22;6128;59.340;18.040;2023-05-18T11:31:57;14.70;60.60
12130;DHT22;6128;59.340;18.040;2023-05-18T11:34:45;14.70;60.60
12130;DHT22;6128;59.340;18.040;2023-05-18T11:37:46;14.70;60.50
12130;DHT22;6128;59.340;18.040;2023-05-18T11:40:08;14.80;60.60
12130;DHT22;6128;59.340;18.040;2023-05-18T11:42:36;14.90;60.70
12130;DHT22;6128;59.340;18.040;2023-05-18T11:45:07;15.00;60.80
12130;DHT22;6128;59.340;18.040;2023-05-18T11:47:34;15.10;60.90
12130;DHT22;6128;59.340;18.040;2023-05-18T11:50:05;15.20;61.00
12130;DHT22;6128;59.340;18.040;2023-05-18T11:52:44;15.30;61.10
12130;DHT22;6128;59.340;18.040;2023-05-18T11:55:13;15.20;61.20
12130;DHT22;6128;59.340;18.040;2023-05-18T11:57:42;15.20;61.30
12130;DHT22;6128;59.340;18.040;2023-05-18T12:00:10;15.20;61.40
12130;DHT22;6128;59.340;18.040;2023-05-18T12:02:41;15.20;61.40
12130;DHT22;6128;59.340;18.040;2023-05-18T12:05:09;15.10;61.40
12130;DHT22;6128;59.340;18.040;2023-05-18T12:07:39;15.20;61.50
12130;DHT22;6128;59.340;18.040;2023-05-18T12:10:09;15.30;61.70
12130;DHT22;6128;59.340;18.040;2023-05-18T12:12:36;15.40;61.80
12130;DHT22;6128;59.340;18.040;2023-05-18T12:15:05;15.30;61.80
12130;DHT22;6128;59.340;18.040;2023-05-18T12:17:39;15.30;61.80
12130;DHT22;6128;59.340;18.040;2023-05-18T12:20:07;15.30;61.70
12130;DHT22;6128;59.340;18.040;2023-05-18T12:22:36;15.40;61.60
12130;DHT22;6128;59.340;18.040;2023-05-18T12:25:05;15.40;61.60
12130;DHT22;6128;59.340;18.040;2023-05-18T12:27:36;15.50;61.70
12130;DHT22;6128;59.340;18.040;2023-05-18T12:30:06;15.50;61.80
12130;DHT22;6128;59.340;18.040;2023-05-18T12:32:36;15.70;62.00
12130;DHT22;6128;59.340;18.040;2023-05-18T12:35:04;15.70;62.20
12130;DHT22;6128;59.340;18.040;2023-05-18T12:37:33;15.70;62.20
12130;DHT22;6128;59.340;18.040;2023-05-18T12:40:00;15.80;62.20
12130;DHT22;6128;59.340;18.040;2023-05-18T12:42:29;15.80;62.10
12130;DHT22;6128;59.340;18.040;2023-05-18T12:44:56;15.90;62.10
12130;DHT22;6128;59.340;18.040;2023-05-18T12:47:24;16.10;62.10
12130;DHT22;6128;59.340;18.040;2023-05-18T12:49:52;16.00;62.00
12130;DHT22;6128;59.340;18.040;2023-05-18T12:52:20;15.90;62.00
12130;DHT22;6128;59.340;18.040;2023-05-18T12:54:49;15.80;61.90
12130;DHT22;6128;59.340;18.040;2023-05-18T12:57:20;15.80;61.90
12130;DHT22;6128;59.340;18.040;2023-05-18T12:59:51;15.80;61.80
12130;DHT22;6128;59.340;18.040;2023-05-18T13:02:32;15.90;61.70
12130;DHT22;6128;59.340;18.040;2023-05-18T13:05:04;16.10;61.70
12130;DHT22;6128;59.340;18.040;2023-05-18T13:07:36;16.20;61.70
12130;DHT22;6128;59.340;18.040;2023-05-18T13:10:08;16.20;61.70
12130;DHT22;6128;59.340;18.040;2023-05-18T13:12:41;16.30;61.90
12130;DHT22;6128;59.340;18.040;2023-05-18T13:15:15;16.40;61.70
12130;DHT22;6128;59.340;18.040;2023-05-18T13:17:57;16.10;61.50
12130;DHT22;6128;59.340;18.040;2023-05-18T13:20:30;16.10;61.60
12130;DHT22;6128;59.340;18.040;2023-05-18T13:22:59;16.20;61.60
12130;DHT22;6128;59.340;18.040;2023-05-18T13:25:27;16.20;61.60
12130;DHT22;6128;59.340;18.040;2023-05-18T13:27:55;16.30;61.60
12130;DHT22;6128;59.340;18.040;2023-05-18T13:30:24;16.50;61.80
12130;DHT22;6128;59.340;18.040;2023-05-18T13:32:51;16.50;61.90
12130;DHT22;6128;59.340;18.040;2023-05-18T13:35:19;16.50;61.90
12130;DHT22;6128;59.340;18.040;2023-05-18T13:37:47;16.50;61.90
12130;DHT22;6128;59.340;18.040;2023-05-18T13:40:15;16.50;61.90
12130;DHT22;6128;59.340;18.040;2023-05-18T13:42:43;16.60;61.70
12130;DHT22;6128;59.340;18.040;2023-05-18T13:45:11;16.70;61.70
12130;DHT22;6128;59.340;18.040;2023-05-18T13:47:40;16.80;61.70
12130;DHT22;6128;59.340;18.040;2023-05-18T13:50:10;16.90;61.70
12130;DHT22;6128;59.340;18.040;2023-05-18T13:52:37;16.80;61.60
12130;DHT22;6128;59.340;18.040;2023-05-18T13:55:06;16.70;61.50
12130;DHT22;6128;59.340;18.040;2023-05-18T13:57:34;16.60;61.30
12130;DHT22;6128;59.340;18.040;2023-05-18T14:00:01;16.50;61.20
12130;DHT22;6128;59.340;18.040;2023-05-18T14:02:34;16.50;61.00
12130;DHT22;6128;59.340;18.040;2023-05-18T14:05:04;16.40;60.90
12130;DHT22;6128;59.340;18.040;2023-05-18T14:07:32;16.40;60.70
12130;DHT22;6128;59.340;18.040;2023-05-18T14:10:00;16.40;60.70
12130;DHT22;6128;59.340;18.040;2023-05-18T14:12:27;16.40;60.70
12130;DHT22;6128;59.340;18.040;2023-05-18T14:14:54;16.50;60.70
12130;DHT22;6128;59.340;18.040;2023-05-18T14:17:21;16.60;60.80
12130;DHT22;6128;59.340;18.040;2023-05-18T14:19:48;16.60;60.70
12130;DHT22;6128;59.340;18.040;2023-05-18T14:22:17;16.60;60.70
12130;DHT22;6128;59.340;18.040;2023-05-18T14:24:46;16.70;60.80
12130;DHT22;6128;59.340;18.040;2023-05-18T14:27:13;16.80;60.80
12130;DHT22;6128;59.340;18.040;2023-05-18T14:29:41;16.80;60.80
12130;DHT22;6128;59.340;18.040;2023-05-18T14:32:08;16.80;60.70
12130;DHT22;6128;59.340;18.040;2023-05-18T14:34:35;16.80;60.70
12130;DHT22;6128;59.340;18.040;2023-05-18T14:37:03;16.60;60.60
12130;DHT22;6128;59.340;18.040;2023-05-18T14:39:32;16.70;60.50
12130;DHT22;6128;59.340;18.040;2023-05-18T14:41:59;16.80;60.60
12130;DHT22;6128;59.340;18.040;2023-05-18T14:44:27;16.80;60.60
12130;DHT22;6128;59.340;18.040;2023-05-18T14:46:54;16.70;60.60
12130;DHT22;6128;59.340;18.040;2023-05-18T14:49:21;16.80;60.70
12130;DHT22;6128;59.340;18.040;2023-05-18T14:51:51;16.80;60.70
12130;DHT22;6128;59.340;18.040;2023-05-18T14:54:18;16.70;60.80
12130;DHT22;6128;59.340;18.040;2023-05-18T14:56:48;16.80;60.60
12130;DHT22;6128;59.340;18.040;2023-05-18T14:59:15;16.80;60.50
12130;DHT22;6128;59.340;18.040;2023-05-18T15:01:42;16.70;60.30
12130;DHT22;6128;59.340;18.040;2023-05-18T15:04:10;16.70;60.20
12130;DHT22;6128;59.340;18.040;2023-05-18T15:06:39;16.70;60.20
12130;DHT22;6128;59.340;18.040;2023-05-18T15:09:06;16.80;60.20
12130;DHT22;6128;59.340;18.040;2023-05-18T15:11:34;16.80;60.20
12130;DHT22;6128;59.340;18.040;2023-05-18T15:14:03;16.80;60.30
12130;DHT22;6128;59.340;18.040;2023-05-18T15:16:30;16.80;60.30
12130;DHT22;6128;59.340;18.040;2023-05-18T15:18:57;16.80;60.40
12130;DHT22;6128;59.340;18.040;2023-05-18T15:21:24;16.80;60.40
12130;DHT22;6128;59.340;18.040;2023-05-18T15:23:51;16.80;60.40
12130;DHT22;6128;59.340;18.040;2023-05-18T15:26:19;16.80;60.40
12130;DHT22;6128;59.340;18.040;2023-05-18T15:28:46;16.80;60.30
12130;DHT22;6128;59.340;18.040;2023-05-18T15:31:15;16.80;60.30
12130;DHT22;6128;59.340;18.040;2023-05-18T15:33:42;16.80;60.30
12130;DHT22;6128;59.340;18.040;2023-05-18T15:36:09;16.80;60.30
12130;DHT22;6128;59.340;18.040;2023-05-18T15:38:37;16.80;60.20
12130;DHT22;6128;59.340;18.040;2023-05-18T15:41:04;16.80;60.10
12130;DHT22;6128;59.340;18.040;2023-05-18T15:43:31;16.80;60.10
12130;DHT22;6128;59.340;18.040;2023-05-18T15:46:01;16.90;60.10
12130;DHT22;6128;59.340;18.040;2023-05-18T15:48:30;16.80;60.10